sensor_id;sensor_type;location;lat;lon;timestamp;temperature;humidity
17954;DHT22;9102;53.548;9.926;2023-03-01T00:01:03;1.80;99.90
17954;DHT22;9102;53.548;9.926;2023-03-01T00:03:30;1.70;99.90
17954;DHT22;9102;53.548;9.926;2023-03-01T00:05:57;1.70;99.90
17954;DHT22;9102;53.548;9.926;2023-03-01T00:08:24;1.70;99.90
17954;DHT22;9102;53.548;9.926;2023-03-01T00:11:02;1.70;99.90
17954;DHT22;9102;53.548;9.926;2023-03-01T00:13:29;1.70;99.90
17954;DHT22;9102;53.548;9.926;2023-03-01T00:15:56;1.70;99.90
17954;DHT22;9102;53.548;9.926;2023-03-01T00:18:23;1.60;99.90
17954;DHT22;9102;53.548;9.926;2023-03-01T00:20:50;1.60;99.90
17954;DHT22;9102;53.548;9.926;2023-03-01T00:23:17;1.60;99.90
17954;DHT22;9102;53.548;9.926;2023-03-01T00:25:44;1.50;99.90
17954;DHT22;9102;53.548;9.926;2023-03-01T00:28:12;1.50;99.90
17954;DHT22;9102;53.548;9.926;2023-03-01T00:30:39;1.50;99.90
17954;DHT22;9102;53.548;9.926;2023-03-01T00:33:06;1.50;99.90
17954;DHT22;9102;53.548;9.926;2023-03-01T00:35:33;1.50;99.90
17954;DHT22;9102;53.548;9.926;2023-03-01T00:38:01;1.50;99.90
17954;DHT22;9102;53.548;9.926;2023-03-01T00:40:31;1.50;99.90
17954;DHT22;9102;53.548;9.926;2023-03-01T00:42:59;1.50;99.90
17954;DHT22;9102;53.548;9.926;2023-03-01T00:45:28;1.40;99.90
17954;DHT22;9102;53.548;9.926;2023-03-01T00:47:56;1.40;99.90
17954;DHT22;9102;53.548;9.926;2023-03-01T00:50:23;1.40;99.90
17954;DHT22;9102;53.548;9.926;2023-03-01T00:52:52;1.40;99.90
17954;DHT22;9102;53.548;9.926;2023-03-01T00:55:20;1.40;99.90
17954;DHT22;9102;53.548;9.926;2023-03-01T00:57:47;1.40;99.90
17954;DHT22;9102;53.548;9.926;2023-03-01T01:00:15;1.40;99.90
17954;DHT22;9102;53.548;9.926;2023-03-01T01:02:44;1.30;99.90
17954;DHT22;9102;53.548;9.926;2023-03-01T01:05:11;1.30;99.90
17954;DHT22;9102;53.548;9.926;2023-03-01T01:07:38;1.30;99.90
17954;DHT22;9102;53.548;9.926;2023-03-01T01:10:07;1.30;99.90
17954;DHT22;9102;53.548;9.926;2023-03-01T01:12:38;1.30;99.90
17954;DHT22;9102;53.548;9.926;2023-03-01T01:15:05;1.30;99.90
17954;DHT22;9102;53.548;9.926;2023-03-01T01:17:32;1.30;99.90
17954;DHT22;9102;53.548;9.926;2023-03-01T01:20:00;1.30;99.90
17954;DHT22;9102;53.548;9.926;2023-03-01T01:22:27;1.30;99.90
17954;DHT22;9102;53.548;9.926;2023-03-01T01:24:54;1.30;99.90
17954;DHT22;9102;53.548;9.926;2023-03-01T01:27:21;1.30;99.90
17954;DHT22;9102;53.548;9.926;2023-03-01T01:29:48;1.30;99.90
17954;DHT22;9102;53.548;9.926;2023-03-01T01:32:15;1.30;99.90
17954;DHT22;9102;53.548;9.926;2023-03-01T01:34:41;1.30;99.90
17954;DHT22;9102;53.548;9.926;2023-03-01T01:37:09;1.30;99.90
17954;DHT22;9102;53.548;9.926;2023-03-01T01:39:36;1.30;99.90
17954;DHT22;9102;53.548;9.926;2023-03-01T01:42:03;1.30;99.90
17954;DHT22;9102;53.548;9.926;2023-03-01T01:44:30;1.30;99.90
17954;DHT22;9102;53.548;9.926;2023-03-01T01:46:59;1.30;99.90
17954;DHT22;9102;53.548;9.926;2023-03-01T01:49:31;1.30;99.90
17954;DHT22;9102;53.548;9.926;2023-03-01T01:52:04;1.30;99.90
17954;DHT22;9102;53.548;9.926;2023-03-01T01:54:39;1.30;99.90
17954;DHT22;9102;53.548;9.926;2023-03-01T02:00:29;1.30;99.90
17954;DHT22;9102;53.548;9.926;2023-03-01T02:02:58;1.30;99.90
17954;DHT22;9102;53.548;9.926;2023-03-01T02:05:31;1.30;99.90
17954;DHT22;9102;53.548;9.926;2023-03-01T02:07:59;1.30;99.90
17954;DHT22;9102;53.548;9.926;2023-03-01T02:10:28;1.30;99.90
17954;DHT22;9102;53.548;9.926;2023-03-01T02:12:55;1.30;99.90
17954;DHT22;9102;53.548;9.926;2023-03-01T02:15:22;1.30;99.90
17954;DHT22;9102;53.548;9.926;2023-03-01T02:17:49;1.30;99.90
17954;DHT22;9102;53.548;9.926;2023-03-01T02:20:23;1.30;99.90
17954;DHT22;9102;53.548;9.926;2023-03-01T02:22:53;1.30;99.90
17954;DHT22;9102;53.548;9.926;2023-03-01T02:25:27;1.30;99.90
17954;DHT22;9102;53.548;9.926;2023-03-01T02:27:58;1.30;99.90
17954;DHT22;9102;53.548;9.926;2023-03-01T02:30:30;1.20;99.90
17954;DHT22;9102;53.548;9.926;2023-03-01T02:32:58;1.30;99.90
17954;DHT22;9102;53.548;9.926;2023-03-01T02:35:29;1.30;99.90
17954;DHT22;9102;53.548;9.926;2023-03-01T02:37:58;1.30;99.90
17954;DHT22;9102;53.548;9.926;2023-03-01T02:40:28;1.30;99.90
17954;DHT22;9102;53.548;9.926;2023-03-01T02:42:58;1.30;99.90
17954;DHT22;9102;53.548;9.926;2023-03-01T02:45:26;1.40;99.90
17954;DHT22;9102;53.548;9.926;2023-03-01T02:47:55;1.40;99.90
17954;DHT22;9102;53.548;9.926;2023-03-01T02:50:36;1.40;99.90
17954;DHT22;9102;53.548;9.926;2023-03-01T02:53:11;1.40;99.90
17954;DHT22;9102;53.548;9.926;2023-03-01T02:55:39;1.40;99.90
17954;DHT22;9102;53.548;9.926;2023-03-01T02:58:07;1.40;99.90
17954;DHT22;9102;53.548;9.926;2023-03-01T03:00:37;1.40;99.90
17954;DHT22;9102;53.548;9.926;2023-03-01T03:03:07;1.40;99.90
17954;DHT22;9102;53.548;9.926;2023-03-01T03:05:35;1.40;99.90
17954;DHT22;9102;53.548;9.926;2023-03-01T03:08:03;1.30;99.90
17954;DHT22;9102;53.548;9.926;2023-03-01T03:10:33;1.30;99.90
17954;DHT22;9102;53.548;9.926;2023-03-01T03:13:02;1.30;99.90
17954;DHT22;9102;53.548;9.926;2023-03-01T03:15:29;1.20;99.90
17954;DHT22;9102;53.548;9.926;2023-03-01T03:17:58;1.30;99.90
17954;DHT22;9102;53.548;9.926;2023-03-01T03:20:27;1.30;99.90
17954;DHT22;9102;53.548;9.926;2023-03-01T03:22:56;1.20;99.90
17954;DHT22;9102;53.548;9.926;2023-03-01T03:25:25;1.30;99.90
17954;DHT22;9102;53.548;9.926;2023-03-01T03:27:53;1.30;99.90
17954;DHT22;9102;53.548;9.926;2023-03-01T03:30:23;1.40;99.90
17954;DHT22;9102;53.548;9.926;2023-03-01T03:32:51;1.40;99.90
17954;DHT22;9102;53.548;9.926;2023-03-01T03:35:46;1.40;99.90
17954;DHT22;9102;53.548;9.926;2023-03-01T03:38:15;1.40;99.90
17954;DHT22;9102;53.548;9.926;2023-03-01T03:40:44;1.50;99.90
17954;DHT22;9102;53.548;9.926;2023-03-01T03:43:13;1.50;99.90
17954;DHT22;9102;53.548;9.926;2023-03-01T03:45:40;1.50;99.90
17954;DHT22;9102;53.548;9.926;2023-03-01T03:48:08;1.60;99.90
17954;DHT22;9102;53.548;9.926;2023-03-01T03:50:35;1.60;99.90
17954;DHT22;9102;53.548;9.926;2023-03-01T03:53:05;1.70;99.90
17954;DHT22;9102;53.548;9.926;2023-03-01T03:55:33;1.70;99.90
17954;DHT22;9102;53.548;9.926;2023-03-01T03:58:02;1.80;99.90
17954;DHT22;9102;53.548;9.926;2023-03-01T04:00:33;1.70;99.90
17954;DHT22;9102;53.548;9.926;2023-03-01T04:03:00;1.80;99.90
17954;DHT22;9102;53.548;9.926;2023-03-01T04:05:28;1.80;99.90
17954;DHT22;9102;53.548;9.926;2023-03-01T04:07:55;1.80;99.90
17954;DHT22;9102;53.548;9.926;2023-03-01T04:10:35;1.80;99.90
17954;DHT22;9102;53.548;9.926;2023-03-01T04:13:03;1.80;99.90
17954;DHT22;9102;53.548;9.926;2023-03-01T04:15:31;1.90;99.90
17954;DHT22;9102;53.548;9.926;2023-03-01T04:17:59;1.90;99.90
17954;DHT22;9102;53.548;9.926;2023-03-01T04:20:29;2.00;99.90
17954;DHT22;9102;53.548;9.926;2023-03-01T04:23:01;2.00;99.90
17954;DHT22;9102;53.548;9.926;2023-03-01T04:25:37;2.00;99.90
17954;DHT22;9102;53.548;9.926;2023-03-01T04:28:04;2.00;99.90
17954;DHT22;9102;53.548;9.926;2023-03-01T04:30:31;2.00;99.90
17954;DHT22;9102;53.548;9.926;2023-03-01T04:33:01;2.00;99.90
17954;DHT22;9102;53.548;9.926;2023-03-01T04:35:29;2.00;99.90
17954;DHT22;9102;53.548;9.926;2023-03-01T04:37:55;2.00;99.90
17954;DHT22;9102;53.548;9.926;2023-03-01T04:40:22;2.00;99.90
17954;DHT22;9102;53.548;9.926;2023-03-01T04:42:51;2.00;99.90
17954;DHT22;9102;53.548;9.926;2023-03-01T04:48:41;2.10;99.90
17954;DHT22;9102;53.548;9.926;2023-03-01T04:51:09;2.10;99.90
17954;DHT22;9102;53.548;9.926;2023-03-01T04:53:39;2.10;99.90
17954;DHT22;9102;53.548;9.926;2023-03-01T04:56:06;2.10;99.90
17954;DHT22;9102;53.548;9.926;2023-03-01T04:58:34;2.20;99.90
17954;DHT22;9102;53.548;9.926;2023-03-01T05:01:01;2.10;99.90
17954;DHT22;9102;53.548;9.926;2023-03-01T05:03:40;2.10;99.90
17954;DHT22;9102;53.548;9.926;2023-03-01T05:06:07;2.10;99.90
17954;DHT22;9102;53.548;9.926;2023-03-01T05:08:34;2.10;99.90
17954;DHT22;9102;53.548;9.926;2023-03-01T05:11:04;2.10;99.90
17954;DHT22;9102;53.548;9.926;2023-03-01T05:13:31;2.10;99.90
17954;DHT22;9102;53.548;9.926;2023-03-01T05:19:21;2.10;99.90
17954;DHT22;9102;53.548;9.926;2023-03-01T05:21:49;2.10;99.90
17954;DHT22;9102;53.548;9.926;2023-03-01T05:24:32;2.10;99.90
17954;DHT22;9102;53.548;9.926;2023-03-01T05:26:59;2.10;99.90
17954;DHT22;9102;53.548;9.926;2023-03-01T05:29:28;2.10;99.90
17954;DHT22;9102;53.548;9.926;2023-03-01T05:31:57;2.10;99.90
17954;DHT22;9102;53.548;9.926;2023-03-01T05:34:27;2.10;99.90
17954;DHT22;9102;53.548;9.926;2023-03-01T05:36:54;2.20;99.90
17954;DHT22;9102;53.548;9.926;2023-03-01T05:39:22;2.20;99.90
17954;DHT22;9102;53.548;9.926;2023-03-01T05:41:52;2.30;99.90
17954;DHT22;9102;53.548;9.926;2023-03-01T05:44:20;2.30;99.90
17954;DHT22;9102;53.548;9.926;2023-03-01T05:46:47;2.40;99.90
17954;DHT22;9102;53.548;9.926;2023-03-01T05:49:15;2.50;99.90
17954;DHT22;9102;53.548;9.926;2023-03-01T05:51:47;2.50;99.90
17954;DHT22;9102;53.548;9.926;2023-03-01T05:54:14;2.50;99.90
17954;DHT22;9102;53.548;9.926;2023-03-01T05:56:40;2.50;99.90
17954;DHT22;9102;53.548;9.926;2023-03-01T05:59:07;2.50;99.90
17954;DHT22;9102;53.548;9.926;2023-03-01T06:01:35;2.50;99.90
17954;DHT22;9102;53.548;9.926;2023-03-01T06:04:03;2.50;99.90
17954;DHT22;9102;53.548;9.926;2023-03-01T06:06:33;2.50;99.90
17954;DHT22;9102;53.548;9.926;2023-03-01T06:09:01;2.50;99.90
17954;DHT22;9102;53.548;9.926;2023-03-01T06:11:28;2.50;99.90
17954;DHT22;9102;53.548;9.926;2023-03-01T06:13:55;2.50;99.90
17954;DHT22;9102;53.548;9.926;2023-03-01T06:16:22;2.50;99.90
17954;DHT22;9102;53.548;9.926;2023-03-01T06:18:49;2.60;99.90
17954;DHT22;9102;53.548;9.926;2023-03-01T06:21:16;2.50;99.90
17954;DHT22;9102;53.548;9.926;2023-03-01T06:23:43;2.50;99.90
17954;DHT22;9102;53.548;9.926;2023-03-01T06:26:11;2.50;99.90
17954;DHT22;9102;53.548;9.926;2023-03-01T06:28:38;2.50;99.90
17954;DHT22;9102;53.548;9.926;2023-03-01T06:31:04;2.40;99.90
17954;DHT22;9102;53.548;9.926;2023-03-01T06:33:34;2.40;99.90
17954;DHT22;9102;53.548;9.926;2023-03-01T06:36:01;2.40;99.90
17954;DHT22;9102;53.548;9.926;2023-03-01T06:38:28;2.40;99.90
17954;DHT22;9102;53.548;9.926;2023-03-01T06:40:55;2.40;99.90
17954;DHT22;9102;53.548;9.926;2023-03-01T06:43:24;2.40;99.90
17954;DHT22;9102;53.548;9.926;2023-03-01T06:45:50;2.40;99.90
17954;DHT22;9102;53.548;9.926;2023-03-01T06:48:17;2.50;99.90
17954;DHT22;9102;53.548;9.926;2023-03-01T06:50:44;2.60;99.90
17954;DHT22;9102;53.548;9.926;2023-03-01T06:53:11;2.60;99.90
17954;DHT22;9102;53.548;9.926;2023-03-01T06:55:38;2.60;99.90
17954;DHT22;9102;53.548;9.926;2023-03-01T06:58:04;2.60;99.90
17954;DHT22;9102;53.548;9.926;2023-03-01T07:00:32;2.60;99.90
17954;DHT22;9102;53.548;9.926;2023-03-01T07:03:00;2.70;99.90
17954;DHT22;9102;53.548;9.926;2023-03-01T07:05:28;2.70;99.90
17954;DHT22;9102;53.548;9.926;2023-03-01T07:07:55;2.80;99.90
17954;DHT22;9102;53.548;9.926;2023-03-01T07:10:22;2.80;99.90
17954;DHT22;9102;53.548;9.926;2023-03-01T07:12:49;2.90;99.90
17954;DHT22;9102;53.548;9.926;2023-03-01T07:15:16;2.80;99.90
17954;DHT22;9102;53.548;9.926;2023-03-01T07:17:44;2.80;99.90
17954;DHT22;9102;53.548;9.926;2023-03-01T07:20:13;2.80;99.90
17954;DHT22;9102;53.548;9.926;2023-03-01T07:22:40;2.90;99.90
17954;DHT22;9102;53.548;9.926;2023-03-01T07:25:08;3.00;99.90
17954;DHT22;9102;53.548;9.926;2023-03-01T07:27:35;3.10;99.90
17954;DHT22;9102;53.548;9.926;2023-03-01T07:30:03;3.10;99.90
17954;DHT22;9102;53.548;9.926;2023-03-01T07:32:30;3.10;99.90
17954;DHT22;9102;53.548;9.926;2023-03-01T07:34:58;3.20;99.90
17954;DHT22;9102;53.548;9.926;2023-03-01T07:37:25;3.30;99.90
17954;DHT22;9102;53.548;9.926;2023-03-01T07:39:51;3.30;99.90
17954;DHT22;9102;53.548;9.926;2023-03-01T07:42:18;3.40;99.90
17954;DHT22;9102;53.548;9.926;2023-03-01T07:44:45;3.40;99.90
17954;DHT22;9102;53.548;9.926;2023-03-01T07:47:12;3.50;99.90
17954;DHT22;9102;53.548;9.926;2023-03-01T07:49:39;3.60;99.90
17954;DHT22;9102;53.548;9.926;2023-03-01T07:52:09;3.60;99.90
17954;DHT22;9102;53.548;9.926;2023-03-01T07:54:36;3.50;99.90
17954;DHT22;9102;53.548;9.926;2023-03-01T07:57:03;3.30;99.90
17954;DHT22;9102;53.548;9.926;2023-03-01T07:59:29;3.30;99.90
17954;DHT22;9102;53.548;9.926;2023-03-01T08:01:56;3.40;99.90
17954;DHT22;9102;53.548;9.926;2023-03-01T08:04:24;3.40;99.90
17954;DHT22;9102;53.548;9.926;2023-03-01T08:06:52;3.40;99.90
17954;DHT22;9102;53.548;9.926;2023-03-01T08:09:20;3.40;99.90
17954;DHT22;9102;53.548;9.926;2023-03-01T08:11:47;3.40;99.90
17954;DHT22;9102;53.548;9.926;2023-03-01T08:14:14;3.40;99.90
17954;DHT22;9102;53.548;9.926;2023-03-01T08:16:41;3.50;99.90
17954;DHT22;9102;53.548;9.926;2023-03-01T08:19:09;3.50;99.90
17954;DHT22;9102;53.548;9.926;2023-03-01T08:21:36;3.60;99.90
17954;DHT22;9102;53.548;9.926;2023-03-01T08:24:04;3.70;99.90
17954;DHT22;9102;53.548;9.926;2023-03-01T08:26:33;3.80;99.90
17954;DHT22;9102;53.548;9.926;2023-03-01T08:29:00;3.90;99.90
17954;DHT22;9102;53.548;9.926;2023-03-01T08:31:30;4.10;99.90
17954;DHT22;9102;53.548;9.926;2023-03-01T08:33:58;4.10;99.90
17954;DHT22;9102;53.548;9.926;2023-03-01T08:36:27;4.20;99.90
17954;DHT22;9102;53.548;9.926;2023-03-01T08:38:54;4.20;99.90
17954;DHT22;9102;53.548;9.926;2023-03-01T08:41:21;4.20;99.90
17954;DHT22;9102;53.548;9.926;2023-03-01T08:43:50;4.20;99.90
17954;DHT22;9102;53.548;9.926;2023-03-01T08:46:18;4.30;99.90
17954;DHT22;9102;53.548;9.926;2023-03-01T08:48:45;4.40;99.90
17954;DHT22;9102;53.548;9.926;2023-03-01T08:51:14;4.50;99.90
17954;DHT22;9102;53.548;9.926;2023-03-01T08:53:41;4.60;99.90
17954;DHT22;9102;53.548;9.926;2023-03-01T08:56:08;4.70;99.90
17954;DHT22;9102;53.548;9.926;2023-03-01T08:58:36;4.60;99.90
17954;DHT22;9102;53.548;9.926;2023-03-01T09:01:08;4.60;99.90
17954;DHT22;9102;53.548;9.926;2023-03-01T09:03:35;4.60;99.90
17954;DHT22;9102;53.548;9.926;2023-03-01T09:06:03;4.70;99.90
17954;DHT22;9102;53.548;9.926;2023-03-01T09:08:31;4.80;99.90
17954;DHT22;9102;53.548;9.926;2023-03-01T09:11:01;4.80;99.90
17954;DHT22;9102;53.548;9.926;2023-03-01T09:13:28;4.90;99.90
17954;DHT22;9102;53.548;9.926;2023-03-01T09:19:19;5.20;99.90
17954;DHT22;9102;53.548;9.926;2023-03-01T09:21:46;5.40;99.90
17954;DHT22;9102;53.548;9.926;2023-03-01T09:24:19;5.40;99.90
17954;DHT22;9102;53.548;9.926;2023-03-01T09:26:46;5.40;99.90
17954;DHT22;9102;53.548;9.926;2023-03-01T09:29:14;5.50;99.90
17954;DHT22;9102;53.548;9.926;2023-03-01T09:31:42;5.50;99.90
17954;DHT22;9102;53.548;9.926;2023-03-01T09:34:09;5.60;99.90
17954;DHT22;9102;53.548;9.926;2023-03-01T09:36:38;5.80;99.90
17954;DHT22;9102;53.548;9.926;2023-03-01T09:39:04;5.80;99.90
17954;DHT22;9102;53.548;9.926;2023-03-01T09:41:45;5.90;99.90
17954;DHT22;9102;53.548;9.926;2023-03-01T09:44:21;6.00;99.90
17954;DHT22;9102;53.548;9.926;2023-03-01T09:46:53;6.00;99.90
17954;DHT22;9102;53.548;9.926;2023-03-01T09:49:22;5.90;99.90
17954;DHT22;9102;53.548;9.926;2023-03-01T09:51:58;5.90;99.90
17954;DHT22;9102;53.548;9.926;2023-03-01T09:54:27;5.90;99.90
17954;DHT22;9102;53.548;9.926;2023-03-01T09:57:05;5.80;99.90
17954;DHT22;9102;53.548;9.926;2023-03-01T09:59:40;5.70;99.90
17954;DHT22;9102;53.548;9.926;2023-03-01T10:02:23;5.70;99.90
17954;DHT22;9102;53.548;9.926;2023-03-01T10:04:51;5.60;99.90
17954;DHT22;9102;53.548;9.926;2023-03-01T10:07:30;5.50;99.90
17954;DHT22;9102;53.548;9.926;2023-03-01T10:09:59;5.50;99.90
17954;DHT22;9102;53.548;9.926;2023-03-01T10:12:34;5.60;99.90
17954;DHT22;9102;53.548;9.926;2023-03-01T10:15:05;5.50;99.90
17954;DHT22;9102;53.548;9.926;2023-03-01T10:17:38;5.40;99.90
17954;DHT22;9102;53.548;9.926;2023-03-01T10:20:15;5.40;99.90
17954;DHT22;9102;53.548;9.926;2023-03-01T10:22:44;5.40;99.90
17954;DHT22;9102;53.548;9.926;2023-03-01T10:25:17;5.40;99.90
17954;DHT22;9102;53.548;9.926;2023-03-01T10:27:51;5.50;99.90
17954;DHT22;9102;53.548;9.926;2023-03-01T10:30:22;5.60;99.90
17954;DHT22;9102;53.548;9.926;2023-03-01T10:32:56;5.70;99.90
17954;DHT22;9102;53.548;9.926;2023-03-01T10:35:25;5.70;99.90
17954;DHT22;9102;53.548;9.926;2023-03-01T10:37:59;5.90;99.90
17954;DHT22;9102;53.548;9.926;2023-03-01T10:40:28;6.00;99.90
17954;DHT22;9102;53.548;9.926;2023-03-01T10:42:58;6.10;99.90
17954;DHT22;9102;53.548;9.926;2023-03-01T10:45:35;6.10;99.90
17954;DHT22;9102;53.548;9.926;2023-03-01T10:48:11;6.10;99.90
17954;DHT22;9102;53.548;9.926;2023-03-01T10:50:40;6.10;99.90
17954;DHT22;9102;53.548;9.926;2023-03-01T10:53:21;6.10;99.90
17954;DHT22;9102;53.548;9.926;2023-03-01T10:55:57;6.10;99.90
17954;DHT22;9102;53.548;9.926;2023-03-01T10:58:25;6.10;99.90
17954;DHT22;9102;53.548;9.926;2023-03-01T11:00:53;6.10;99.90
17954;DHT22;9102;53.548;9.926;2023-03-01T11:03:23;6.00;99.90
17954;DHT22;9102;53.548;9.926;2023-03-01T11:06:05;6.10;99.90
17954;DHT22;9102;53.548;9.926;2023-03-01T11:08:40;6.10;99.90
17954;DHT22;9102;53.548;9.926;2023-03-01T11:11:18;6.10;99.90
17954;DHT22;9102;53.548;9.926;2023-03-01T11:13:51;5.90;99.90
17954;DHT22;9102;53.548;9.926;2023-03-01T11:16:25;5.90;99.90
17954;DHT22;9102;53.548;9.926;2023-03-01T11:19:15;6.00;99.90
17954;DHT22;9102;53.548;9.926;2023-03-01T11:21:50;5.90;99.90
17954;DHT22;9102;53.548;9.926;2023-03-01T11:24:22;6.10;99.90
17954;DHT22;9102;53.548;9.926;2023-03-01T11:26:54;6.10;99.90
17954;DHT22;9102;53.548;9.926;2023-03-01T11:29:27;6.30;99.90
17954;DHT22;9102;53.548;9.926;2023-03-01T11:31:59;6.40;99.90
17954;DHT22;9102;53.548;9.926;2023-03-01T11:34:40;6.50;99.90
17954;DHT22;9102;53.548;9.926;2023-03-01T11:37:14;6.50;99.90
17954;DHT22;9102;53.548;9.926;2023-03-01T11:39:49;6.60;99.90
17954;DHT22;9102;53.548;9.926;2023-03-01T11:42:20;6.50;99.90
17954;DHT22;9102;53.548;9.926;2023-03-01T11:44:49;6.60;99.90
17954;DHT22;9102;53.548;9.926;2023-03-01T11:47:38;6.70;99.90
17954;DHT22;9102;53.548;9.926;2023-03-01T11:50:15;6.90;99.90
17954;DHT22;9102;53.548;9.926;2023-03-01T11:52:59;7.00;99.90
17954;DHT22;9102;53.548;9.926;2023-03-01T11:55:41;7.00;99.90
17954;DHT22;9102;53.548;9.926;2023-03-01T11:58:31;7.20;99.90
17954;DHT22;9102;53.548;9.926;2023-03-01T12:01:12;7.30;99.90
17954;DHT22;9102;53.548;9.926;2023-03-01T12:03:52;7.30;99.90
17954;DHT22;9102;53.548;9.926;2023-03-01T12:06:42;7.20;99.90
17954;DHT22;9102;53.548;9.926;2023-03-01T12:09:21;7.10;99.90
17954;DHT22;9102;53.548;9.926;2023-03-01T12:12:11;7.20;99.90
17954;DHT22;9102;53.548;9.926;2023-03-01T12:14:50;7.20;99.90
17954;DHT22;9102;53.548;9.926;2023-03-01T12:17:45;7.40;99.90
17954;DHT22;9102;53.548;9.926;2023-03-01T12:20:21;7.50;99.90
17954;DHT22;9102;53.548;9.926;2023-03-01T12:23:09;7.70;99.90
17954;DHT22;9102;53.548;9.926;2023-03-01T12:25:45;7.80;99.90
17954;DHT22;9102;53.548;9.926;2023-03-01T12:34:41;7.70;99.90
17954;DHT22;9102;53.548;9.926;2023-03-01T12:37:21;7.60;99.90
17954;DHT22;9102;53.548;9.926;2023-03-01T12:40:15;7.60;99.90
17954;DHT22;9102;53.548;9.926;2023-03-01T12:42:48;7.60;99.90
17954;DHT22;9102;53.548;9.926;2023-03-01T12:45:35;7.50;99.90
17954;DHT22;9102;53.548;9.926;2023-03-01T12:48:24;7.50;99.90
17954;DHT22;9102;53.548;9.926;2023-03-01T12:50:58;7.40;99.90
17954;DHT22;9102;53.548;9.926;2023-03-01T12:53:28;7.40;99.90
17954;DHT22;9102;53.548;9.926;2023-03-01T12:55:59;7.50;99.90
17954;DHT22;9102;53.548;9.926;2023-03-01T12:58:31;7.50;99.90
17954;DHT22;9102;53.548;9.926;2023-03-01T13:01:10;7.50;99.90
17954;DHT22;9102;53.548;9.926;2023-03-01T13:04:10;7.40;99.90
17954;DHT22;9102;53.548;9.926;2023-03-01T13:06:44;7.50;99.90
17954;DHT22;9102;53.548;9.926;2023-03-01T13:09:19;7.50;99.90
17954;DHT22;9102;53.548;9.926;2023-03-01T13:11:49;7.60;99.90
17954;DHT22;9102;53.548;9.926;2023-03-01T13:17:33;7.60;99.90
17954;DHT22;9102;53.548;9.926;2023-03-01T13:20:15;7.60;99.90
17954;DHT22;9102;53.548;9.926;2023-03-01T13:22:43;7.60;99.90
17954;DHT22;9102;53.548;9.926;2023-03-01T13:25:15;7.70;99.90
17954;DHT22;9102;53.548;9.926;2023-03-01T13:27:43;7.60;99.90
17954;DHT22;9102;53.548;9.926;2023-03-01T13:30:41;7.60;99.90
17954;DHT22;9102;53.548;9.926;2023-03-01T13:33:40;7.60;99.90
17954;DHT22;9102;53.548;9.926;2023-03-01T13:39:33;7.50;99.90
17954;DHT22;9102;53.548;9.926;2023-03-01T13:45:20;7.40;99.90
17954;DHT22;9102;53.548;9.926;2023-03-01T13:47:52;7.40;99.90
17954;DHT22;9102;53.548;9.926;2023-03-01T13:50:24;7.40;99.90
17954;DHT22;9102;53.548;9.926;2023-03-01T13:52:54;7.50;99.90
17954;DHT22;9102;53.548;9.926;2023-03-01T13:55:27;7.40;99.90
17954;DHT22;9102;53.548;9.926;2023-03-01T13:57:57;7.40;99.90
17954;DHT22;9102;53.548;9.926;2023-03-01T14:00:27;7.40;99.90
17954;DHT22;9102;53.548;9.926;2023-03-01T14:03:04;7.40;99.90
17954;DHT22;9102;53.548;9.926;2023-03-01T14:05:33;7.40;99.90
17954;DHT22;9102;53.548;9.926;2023-03-01T14:08:01;7.40;99.90
17954;DHT22;9102;53.548;9.926;2023-03-01T14:10:35;7.40;99.90
17954;DHT22;9102;53.548;9.926;2023-03-01T14:13:18;7.30;99.90
17954;DHT22;9102;53.548;9.926;2023-03-01T14:15:50;7.30;99.90
17954;DHT22;9102;53.548;9.926;2023-03-01T14:18:25;7.20;99.90
17954;DHT22;9102;53.548;9.926;2023-03-01T14:20:55;7.30;99.90
17954;DHT22;9102;53.548;9.926;2023-03-01T14:23:23;7.30;99.90
17954;DHT22;9102;53.548;9.926;2023-03-01T14:25:54;7.30;99.90
17954;DHT22;9102;53.548;9.926;2023-03-01T14:28:24;7.30;99.90
17954;DHT22;9102;53.548;9.926;2023-03-01T14:30:53;7.20;99.90
17954;DHT22;9102;53.548;9.926;2023-03-01T14:33:23;7.30;99.90
17954;DHT22;9102;53.548;9.926;2023-03-01T14:35:57;7.30;99.90
17954;DHT22;9102;53.548;9.926;2023-03-01T14:38:30;7.30;99.90
17954;DHT22;9102;53.548;9.926;2023-03-01T14:41:00;7.30;99.90
17954;DHT22;9102;53.548;9.926;2023-03-01T14:43:29;7.20;99.90
17954;DHT22;9102;53.548;9.926;2023-03-01T14:45:57;7.20;99.90
17954;DHT22;9102;53.548;9.926;2023-03-01T14:48:24;7.20;99.90
17954;DHT22;9102;53.548;9.926;2023-03-01T14:50:54;7.30;99.90
17954;DHT22;9102;53.548;9.926;2023-03-01T14:53:24;7.20;99.90
17954;DHT22;9102;53.548;9.926;2023-03-01T14:55:53;7.20;99.90
17954;DHT22;9102;53.548;9.926;2023-03-01T14:58:23;7.20;99.90
17954;DHT22;9102;53.548;9.926;2023-03-01T15:00:52;7.20;99.90
17954;DHT22;9102;53.548;9.926;2023-03-01T15:03:27;7.20;99.90
17954;DHT22;9102;53.548;9.926;2023-03-01T15:05:59;7.10;99.90
17954;DHT22;9102;53.548;9.926;2023-03-01T15:08:27;7.20;99.90
17954;DHT22;9102;53.548;9.926;2023-03-01T15:11:01;7.20;99.90
17954;DHT22;9102;53.548;9.926;2023-03-01T15:13:31;7.20;99.90
17954;DHT22;9102;53.548;9.926;2023-03-01T15:16:09;7.10;99.90
17954;DHT22;9102;53.548;9.926;2023-03-01T15:18:37;7.10;99.90
17954;DHT22;9102;53.548;9.926;2023-03-01T15:21:17;7.10;99.90
17954;DHT22;9102;53.548;9.926;2023-03-01T15:23:49;7.00;99.90
17954;DHT22;9102;53.548;9.926;2023-03-01T15:26:25;7.00;99.90
17954;DHT22;9102;53.548;9.926;2023-03-01T15:28:53;7.00;99.90
17954;DHT22;9102;53.548;9.926;2023-03-01T15:31:25;7.00;99.90
17954;DHT22;9102;53.548;9.926;2023-03-01T15:34:07;7.00;99.90
17954;DHT22;9102;53.548;9.926;2023-03-01T15:36:42;7.00;99.90
17954;DHT22;9102;53.548;9.926;2023-03-01T15:39:32;7.00;99.90
17954;DHT22;9102;53.548;9.926;2023-03-01T15:42:03;6.90;99.90
17954;DHT22;9102;53.548;9.926;2023-03-01T15:44:32;6.90;99.90
17954;DHT22;9102;53.548;9.926;2023-03-01T15:47:00;6.90;99.90
17954;DHT22;9102;53.548;9.926;2023-03-01T15:49:35;6.90;99.90
17954;DHT22;9102;53.548;9.926;2023-03-01T15:52:08;6.90;99.90
17954;DHT22;9102;53.548;9.926;2023-03-01T15:54:38;6.90;99.90
17954;DHT22;9102;53.548;9.926;2023-03-01T15:57:10;6.80;99.90
17954;DHT22;9102;53.548;9.926;2023-03-01T15:59:39;6.80;99.90
17954;DHT22;9102;53.548;9.926;2023-03-01T16:02:09;6.70;99.90
17954;DHT22;9102;53.548;9.926;2023-03-01T16:04:35;6.80;99.90
17954;DHT22;9102;53.548;9.926;2023-03-01T16:07:04;6.80;99.90
17954;DHT22;9102;53.548;9.926;2023-03-01T16:09:31;6.80;99.90
17954;DHT22;9102;53.548;9.926;2023-03-01T16:11:58;6.70;99.90
17954;DHT22;9102;53.548;9.926;2023-03-01T16:14:25;6.70;99.90
17954;DHT22;9102;53.548;9.926;2023-03-01T16:16:51;6.60;99.90
17954;DHT22;9102;53.548;9.926;2023-03-01T16:19:18;6.60;99.90
17954;DHT22;9102;53.548;9.926;2023-03-01T16:21:45;6.60;99.90
17954;DHT22;9102;53.548;9.926;2023-03-01T16:24:15;6.50;99.90
17954;DHT22;9102;53.548;9.926;2023-03-01T16:26:42;6.40;99.90
17954;DHT22;9102;53.548;9.926;2023-03-01T16:29:09;6.50;99.90
17954;DHT22;9102;53.548;9.926;2023-03-01T16:31:36;6.40;99.90
17954;DHT22;9102;53.548;9.926;2023-03-01T16:34:03;6.30;99.90
17954;DHT22;9102;53.548;9.926;2023-03-01T16:36:30;6.30;99.90
17954;DHT22;9102;53.548;9.926;2023-03-01T16:38:58;6.20;99.90
17954;DHT22;9102;53.548;9.926;2023-03-01T16:41:27;6.20;99.90
17954;DHT22;9102;53.548;9.926;2023-03-01T16:43:54;6.20;99.90
17954;DHT22;9102;53.548;9.926;2023-03-01T16:46:24;6.10;99.90
17954;DHT22;9102;53.548;9.926;2023-03-01T16:48:51;6.10;99.90
17954;DHT22;9102;53.548;9.926;2023-03-01T16:51:19;6.10;99.90
17954;DHT22;9102;53.548;9.926;2023-03-01T16:53:46;6.10;99.90